createdAt,value
2022-12-11T00:00:39.513Z,-1.09
2022-12-11T00:03:10.223Z,-1.07
2022-12-11T00:05:41.154Z,-1.06
2022-12-11T00:08:08.535Z,-1.11
2022-12-11T00:19:13.304Z,-1.06
2022-12-11T00:21:40.377Z,-1.04
2022-12-11T00:24:11.728Z,-1.02
2022-12-11T00:26:42.782Z,-0.98
2022-12-11T00:29:14.355Z,-0.96
2022-12-11T00:31:42.419Z,-0.94
2022-12-11T00:34:09.656Z,-0.94
2022-12-11T00:36:36.718Z,-0.92
2022-12-11T00:39:04.895Z,-0.92
2022-12-11T00:41:32.253Z,-0.94
2022-12-11T00:43:59.418Z,-0.94
2022-12-11T00:46:26.492Z,-0.97
2022-12-11T00:48:53.596Z,-0.91
2022-12-11T00:51:20.839Z,-0.87
2022-12-11T00:53:48.285Z,-0.83
2022-12-11T00:56:18.259Z,-0.82
2022-12-11T00:58:46.511Z,-0.88
2022-12-11T01:01:16.766Z,-0.82
2022-12-11T01:03:44.045Z,-0.79
2022-12-11T01:06:16.465Z,-0.77
2022-12-11T01:08:45.020Z,-0.79
2022-12-11T01:11:14.381Z,-0.83
2022-12-11T01:13:41.905Z,-0.78
2022-12-11T01:16:13.087Z,-0.72
2022-12-11T01:18:40.460Z,-0.68
2022-12-11T01:21:10.059Z,-0.68
2022-12-11T01:23:37.894Z,-0.72
2022-12-11T01:26:09.583Z,-0.68
2022-12-11T01:28:36.859Z,-0.67
2022-12-11T01:31:14.597Z,-0.63
2022-12-11T01:33:41.721Z,-0.63
2022-12-11T01:36:18.357Z,-0.59
2022-12-11T01:38:46.846Z,-0.59
2022-12-11T01:41:15.099Z,-0.60
2022-12-11T01:43:57.242Z,-0.64
2022-12-11T01:46:25.005Z,-0.73
2022-12-11T01:48:52.692Z,-0.75
2022-12-11T01:51:20.329Z,-0.84
2022-12-11T01:53:51.822Z,-0.88
2022-12-11T01:56:19.380Z,-0.84
2022-12-11T01:58:49.403Z,-0.87
2022-12-11T02:01:28.566Z,-0.86
2022-12-11T02:03:55.838Z,-0.99
2022-12-11T02:06:36.463Z,-0.97
2022-12-11T02:09:05.820Z,-0.93
2022-12-11T02:11:45.819Z,-0.99
2022-12-11T02:14:27.493Z,-0.94
2022-12-11T02:17:04.465Z,-0.99
2022-12-11T02:19:48.633Z,-0.99
2022-12-11T02:22:41.271Z,-0.93
2022-12-11T02:25:21.807Z,-0.94
2022-12-11T02:27:56.555Z,-0.96
2022-12-11T02:30:23.969Z,-0.99
2022-12-11T02:32:56.340Z,-0.90
2022-12-11T02:35:23.565Z,-0.90
2022-12-11T02:37:56.268Z,-0.97
2022-12-11T02:40:26.767Z,-0.95
2022-12-11T02:42:55.968Z,-0.94
2022-12-11T02:45:24.475Z,-0.88
2022-12-11T02:47:52.500Z,-0.92
2022-12-11T02:50:21.602Z,-0.98
2022-12-11T02:52:50.883Z,-1.04
2022-12-11T02:55:18.497Z,-1.00
2022-12-11T02:57:49.311Z,-0.91
2022-12-11T03:00:16.855Z,-0.89
2022-12-11T03:02:44.413Z,-0.90
2022-12-11T03:05:13.376Z,-0.84
2022-12-11T03:07:42.473Z,-0.85
2022-12-11T03:10:14.423Z,-0.95
2022-12-11T03:12:43.511Z,-0.98
2022-12-11T03:15:17.681Z,-0.99
2022-12-11T03:17:47.859Z,-1.02
2022-12-11T03:20:14.949Z,-1.05
2022-12-11T03:22:54.946Z,-1.10
2022-12-11T03:25:44.298Z,-1.13
2022-12-11T03:28:19.441Z,-1.09
2022-12-11T03:30:49.727Z,-1.06
2022-12-11T03:33:24.336Z,-1.05
2022-12-11T03:35:56.063Z,-0.96
2022-12-11T03:38:37.783Z,-0.97
2022-12-11T03:41:06.605Z,-0.98
2022-12-11T03:43:34.194Z,-1.07
2022-12-11T03:46:01.676Z,-1.14
2022-12-11T03:48:33.258Z,-1.07
2022-12-11T03:51:02.455Z,-1.00
2022-12-11T03:53:30.029Z,-1.05
2022-12-11T03:55:58.276Z,-0.94
2022-12-11T03:58:25.433Z,-1.04
2022-12-11T04:00:52.521Z,-1.03
2022-12-11T04:03:19.699Z,-1.04
2022-12-11T04:05:48.877Z,-1.09
2022-12-11T04:08:17.606Z,-1.18
2022-12-11T04:10:44.784Z,-1.21
2022-12-11T04:13:12.377Z,-1.18
2022-12-11T04:15:40.199Z,-1.17
2022-12-11T04:18:26.553Z,-1.14
2022-12-11T04:21:12.879Z,-1.32
2022-12-11T04:23:58.659Z,-1.49
2022-12-11T04:26:26.188Z,-1.50
2022-12-11T04:28:53.390Z,-1.44
2022-12-11T04:31:21.971Z,-1.40
2022-12-11T04:33:49.204Z,-1.35
2022-12-11T04:36:16.673Z,-1.30
2022-12-11T04:38:43.787Z,-1.26
2022-12-11T04:41:13.677Z,-1.32
2022-12-11T04:43:41.070Z,-1.33
2022-12-11T04:46:10.943Z,-1.44
2022-12-11T04:48:38.791Z,-1.44
2022-12-11T04:51:06.305Z,-1.38
2022-12-11T04:53:33.554Z,-1.34
2022-12-11T04:56:01.013Z,-1.32
2022-12-11T04:58:28.205Z,-1.25
2022-12-11T05:00:55.304Z,-1.29
2022-12-11T05:03:22.543Z,-1.41
2022-12-11T05:05:51.691Z,-1.46
2022-12-11T05:08:19.844Z,-1.47
2022-12-11T05:11:00.907Z,-1.35
2022-12-11T05:13:29.058Z,-1.25
2022-12-11T05:15:56.652Z,-1.19
2022-12-11T05:18:24.126Z,-1.16
2022-12-11T05:20:58.523Z,-1.21
2022-12-11T05:23:25.960Z,-1.28
2022-12-11T05:25:57.704Z,-1.35
2022-12-11T05:28:27.488Z,-1.34
2022-12-11T05:31:21.511Z,-1.35
2022-12-11T05:33:50.170Z,-1.44
2022-12-11T05:36:31.501Z,-1.51
2022-12-11T05:38:59.685Z,-1.51
2022-12-11T05:41:28.295Z,-1.50
2022-12-11T05:43:55.355Z,-1.57
2022-12-11T05:46:24.823Z,-1.49
2022-12-11T05:48:55.086Z,-1.38
2022-12-11T05:51:22.508Z,-1.30
2022-12-11T05:53:51.301Z,-1.22
2022-12-11T05:56:20.859Z,-1.24
2022-12-11T05:58:48.764Z,-1.21
2022-12-11T06:01:18.576Z,-1.23
2022-12-11T06:03:45.737Z,-1.24
2022-12-11T06:06:12.939Z,-1.24
2022-12-11T06:08:40.031Z,-1.32
2022-12-11T06:11:07.678Z,-1.26
2022-12-11T06:13:35.393Z,-1.24
2022-12-11T06:16:04.148Z,-1.22
2022-12-11T06:18:31.980Z,-1.17
2022-12-11T06:20:59.267Z,-1.22
2022-12-11T06:23:26.354Z,-1.21
2022-12-11T06:25:53.444Z,-1.28
2022-12-11T06:28:20.549Z,-1.20
2022-12-11T06:30:47.783Z,-1.22
2022-12-11T06:33:14.945Z,-1.38
2022-12-11T06:35:42.660Z,-1.49
2022-12-11T06:55:48.806Z,-1.51
2022-12-11T06:58:16.593Z,-1.48
2022-12-11T07:00:43.838Z,-1.58
2022-12-11T07:03:11.475Z,-1.59
2022-12-11T07:05:38.518Z,-1.58
2022-12-11T07:08:07.148Z,-1.52
2022-12-11T07:10:34.246Z,-1.65
2022-12-11T07:13:01.344Z,-1.71
2022-12-11T07:15:28.441Z,-1.70
2022-12-11T07:17:55.506Z,-1.64
2022-12-11T07:20:22.684Z,-1.73
2022-12-11T07:22:49.890Z,-1.80
2022-12-11T07:25:17.194Z,-1.76
2022-12-11T07:27:44.358Z,-1.71
2022-12-11T07:30:11.964Z,-1.72
2022-12-11T07:32:39.215Z,-1.75
2022-12-11T07:35:06.750Z,-1.80
2022-12-11T07:37:33.909Z,-1.83
2022-12-11T07:40:01.043Z,-1.73
2022-12-11T07:42:28.650Z,-1.71
2022-12-11T07:44:55.811Z,-1.75
2022-12-11T07:47:23.007Z,-1.73
2022-12-11T07:49:50.141Z,-1.78
2022-12-11T07:52:17.214Z,-1.69
2022-12-11T07:54:44.389Z,-1.61
2022-12-11T07:57:14.172Z,-1.56
2022-12-11T07:59:41.775Z,-1.64
2022-12-11T08:02:11.951Z,-1.67
2022-12-11T08:04:39.128Z,-1.63
2022-12-11T08:07:06.303Z,-1.59
2022-12-11T08:09:33.475Z,-1.55
2022-12-11T08:12:00.626Z,-1.49
2022-12-11T09:56:36.586Z,-1.36
2022-12-11T09:59:32.359Z,-1.31
2022-12-11T10:02:19.029Z,-1.38
2022-12-11T10:04:58.946Z,-1.29
2022-12-11T10:07:48.894Z,-1.25
2022-12-11T10:10:37.963Z,-1.18
2022-12-11T10:13:30.267Z,-1.26
2022-12-11T10:16:20.185Z,-1.39
2022-12-11T10:18:48.830Z,-1.52
2022-12-11T10:21:18.151Z,-1.45
2022-12-11T10:23:56.290Z,-1.51
2022-12-11T10:26:23.547Z,-1.57
2022-12-11T10:28:50.710Z,-1.60
2022-12-11T10:31:20.190Z,-1.54
2022-12-11T10:33:56.789Z,-1.69
2022-12-11T10:36:28.726Z,-1.65
2022-12-11T10:38:55.975Z,-1.49
2022-12-11T10:41:28.368Z,-1.42
2022-12-11T10:43:55.450Z,-1.42
2022-12-11T10:46:22.491Z,-1.49
2022-12-11T10:48:53.490Z,-1.51
2022-12-11T10:51:32.481Z,-1.50
2022-12-11T10:54:07.527Z,-1.46
2022-12-11T10:56:35.999Z,-1.37
2022-12-11T10:59:03.965Z,-1.30
2022-12-11T11:01:32.030Z,-1.24
2022-12-11T11:04:19.330Z,-1.24
2022-12-11T11:06:46.498Z,-1.20
2022-12-11T11:09:35.786Z,-1.20
2022-12-11T11:12:07.854Z,-1.15
2022-12-11T11:14:35.226Z,-1.19
2022-12-11T11:17:02.316Z,-1.13
2022-12-11T11:19:36.367Z,-1.14
2022-12-11T11:22:14.589Z,-1.22
2022-12-11T12:40:24.651Z,-1.10
2022-12-11T14:26:39.930Z,-0.93
2022-12-11T14:46:42.872Z,-0.95
2022-12-11T14:49:21.045Z,-1.09
2022-12-11T14:51:48.303Z,-1.12
2022-12-11T15:46:33.689Z,-1.19
2022-12-11T15:57:33.215Z,-0.82
2022-12-11T16:08:43.141Z,-0.81
2022-12-11T16:15:30.117Z,-0.79
2022-12-11T16:35:56.080Z,-0.99
2022-12-11T16:38:23.242Z,-1.03
2022-12-11T16:58:07.208Z,-0.92
2022-12-11T17:31:53.323Z,-0.94
2022-12-11T20:17:48.440Z,-1.36
2022-12-11T20:20:15.539Z,-1.34
2022-12-11T20:44:10.445Z,-1.39
2022-12-11T21:12:29.821Z,-1.29
2022-12-11T21:19:23.646Z,-1.30
2022-12-11T22:22:05.526Z,-1.59
